sensor_id;sensor_type;location;lat;lon;timestamp;P1;durP1;ratioP1;P2;durP2;ratioP2
9836;SDS011;4957;51.412;6.724;2023-05-25T00:02:02;20.60;;;6.33;;
9836;SDS011;4957;51.412;6.724;2023-05-25T00:04:31;13.90;;;5.10;;
9836;SDS011;4957;51.412;6.724;2023-05-25T00:07:01;15.80;;;5.80;;
9836;SDS011;4957;51.412;6.724;2023-05-25T00:09:27;17.17;;;4.97;;
9836;SDS011;4957;51.412;6.724;2023-05-25T00:11:53;15.17;;;5.40;;
9836;SDS011;4957;51.412;6.724;2023-05-25T00:14:20;9.57;;;3.90;;
9836;SDS011;4957;51.412;6.724;2023-05-25T00:16:47;12.37;;;4.47;;
9836;SDS011;4957;51.412;6.724;2023-05-25T00:19:13;13.87;;;5.07;;
9836;SDS011;4957;51.412;6.724;2023-05-25T00:21:43;11.10;;;4.53;;
9836;SDS011;4957;51.412;6.724;2023-05-25T00:24:12;11.70;;;6.23;;
9836;SDS011;4957;51.412;6.724;2023-05-25T00:26:38;12.00;;;4.70;;
9836;SDS011;4957;51.412;6.724;2023-05-25T00:29:03;11.93;;;4.70;;
9836;SDS011;4957;51.412;6.724;2023-05-25T00:31:29;16.57;;;5.27;;
9836;SDS011;4957;51.412;6.724;2023-05-25T00:33:59;14.13;;;5.10;;
9836;SDS011;4957;51.412;6.724;2023-05-25T00:36:25;17.53;;;5.30;;
9836;SDS011;4957;51.412;6.724;2023-05-25T00:38:50;14.43;;;4.67;;
9836;SDS011;4957;51.412;6.724;2023-05-25T00:41:16;11.53;;;4.57;;
9836;SDS011;4957;51.412;6.724;2023-05-25T00:43:45;11.83;;;5.00;;
9836;SDS011;4957;51.412;6.724;2023-05-25T00:46:13;9.50;;;4.83;;
9836;SDS011;4957;51.412;6.724;2023-05-25T00:48:38;11.57;;;4.53;;
9836;SDS011;4957;51.412;6.724;2023-05-25T00:51:05;13.63;;;5.30;;
9836;SDS011;4957;51.412;6.724;2023-05-25T00:53:31;10.83;;;4.50;;
9836;SDS011;4957;51.412;6.724;2023-05-25T00:58:34;16.20;;;5.43;;
9836;SDS011;4957;51.412;6.724;2023-05-25T01:01:05;10.73;;;5.03;;
9836;SDS011;4957;51.412;6.724;2023-05-25T01:03:36;13.30;;;4.67;;
9836;SDS011;4957;51.412;6.724;2023-05-25T01:06:06;11.50;;;5.10;;
9836;SDS011;4957;51.412;6.724;2023-05-25T01:08:37;14.13;;;5.30;;
9836;SDS011;4957;51.412;6.724;2023-05-25T01:11:10;17.90;;;4.57;;
9836;SDS011;4957;51.412;6.724;2023-05-25T01:13:36;15.33;;;4.50;;
9836;SDS011;4957;51.412;6.724;2023-05-25T01:16:03;17.10;;;5.00;;
9836;SDS011;4957;51.412;6.724;2023-05-25T01:18:30;9.77;;;4.60;;
9836;SDS011;4957;51.412;6.724;2023-05-25T01:21:18;10.40;;;4.70;;
9836;SDS011;4957;51.412;6.724;2023-05-25T01:23:46;10.17;;;4.50;;
9836;SDS011;4957;51.412;6.724;2023-05-25T01:26:23;8.90;;;4.40;;
9836;SDS011;4957;51.412;6.724;2023-05-25T01:28:53;16.80;;;5.73;;
9836;SDS011;4957;51.412;6.724;2023-05-25T01:31:21;15.57;;;5.20;;
9836;SDS011;4957;51.412;6.724;2023-05-25T01:33:51;11.60;;;5.63;;
9836;SDS011;4957;51.412;6.724;2023-05-25T01:36:17;9.23;;;4.83;;
9836;SDS011;4957;51.412;6.724;2023-05-25T01:38:44;12.40;;;4.93;;
9836;SDS011;4957;51.412;6.724;2023-05-25T01:41:09;17.10;;;6.27;;
9836;SDS011;4957;51.412;6.724;2023-05-25T01:43:35;18.87;;;5.80;;
9836;SDS011;4957;51.412;6.724;2023-05-25T01:46:11;15.83;;;5.80;;
9836;SDS011;4957;51.412;6.724;2023-05-25T01:54:27;12.13;;;4.93;;
9836;SDS011;4957;51.412;6.724;2023-05-25T01:56:59;9.33;;;5.40;;
9836;SDS011;4957;51.412;6.724;2023-05-25T01:59:28;14.67;;;4.73;;
9836;SDS011;4957;51.412;6.724;2023-05-25T02:01:56;12.60;;;5.50;;
9836;SDS011;4957;51.412;6.724;2023-05-25T02:04:23;20.33;;;6.47;;
9836;SDS011;4957;51.412;6.724;2023-05-25T02:06:50;12.57;;;6.33;;
9836;SDS011;4957;51.412;6.724;2023-05-25T02:09:16;19.87;;;6.60;;
9836;SDS011;4957;51.412;6.724;2023-05-25T02:11:41;20.73;;;6.00;;
9836;SDS011;4957;51.412;6.724;2023-05-25T02:14:07;19.00;;;6.00;;
9836;SDS011;4957;51.412;6.724;2023-05-25T02:16:35;15.90;;;5.30;;
9836;SDS011;4957;51.412;6.724;2023-05-25T02:19:00;12.90;;;5.00;;
9836;SDS011;4957;51.412;6.724;2023-05-25T02:21:26;14.03;;;4.90;;
9836;SDS011;4957;51.412;6.724;2023-05-25T02:23:52;15.47;;;5.33;;
9836;SDS011;4957;51.412;6.724;2023-05-25T02:26:18;9.93;;;4.87;;
9836;SDS011;4957;51.412;6.724;2023-05-25T02:28:44;12.03;;;4.23;;
9836;SDS011;4957;51.412;6.724;2023-05-25T02:31:10;12.00;;;4.80;;
9836;SDS011;4957;51.412;6.724;2023-05-25T02:33:36;7.70;;;4.90;;
9836;SDS011;4957;51.412;6.724;2023-05-25T02:36:02;13.13;;;4.83;;
9836;SDS011;4957;51.412;6.724;2023-05-25T02:38:29;16.07;;;5.77;;
9836;SDS011;4957;51.412;6.724;2023-05-25T02:40:55;16.23;;;5.30;;
9836;SDS011;4957;51.412;6.724;2023-05-25T02:43:20;16.77;;;5.40;;
9836;SDS011;4957;51.412;6.724;2023-05-25T02:45:46;10.90;;;5.10;;
9836;SDS011;4957;51.412;6.724;2023-05-25T02:48:12;16.77;;;4.97;;
9836;SDS011;4957;51.412;6.724;2023-05-25T02:50:37;14.67;;;4.80;;
9836;SDS011;4957;51.412;6.724;2023-05-25T02:53:03;12.00;;;5.50;;
9836;SDS011;4957;51.412;6.724;2023-05-25T02:55:29;17.13;;;6.17;;
9836;SDS011;4957;51.412;6.724;2023-05-25T02:57:54;20.37;;;7.57;;
9836;SDS011;4957;51.412;6.724;2023-05-25T03:00:20;24.77;;;9.03;;
9836;SDS011;4957;51.412;6.724;2023-05-25T03:02:46;30.87;;;9.43;;
9836;SDS011;4957;51.412;6.724;2023-05-25T03:05:13;23.60;;;9.03;;
9836;SDS011;4957;51.412;6.724;2023-05-25T03:07:40;27.90;;;10.43;;
9836;SDS011;4957;51.412;6.724;2023-05-25T03:10:07;19.40;;;8.60;;
9836;SDS011;4957;51.412;6.724;2023-05-25T03:12:34;24.20;;;8.17;;
9836;SDS011;4957;51.412;6.724;2023-05-25T03:14:59;19.77;;;7.33;;
9836;SDS011;4957;51.412;6.724;2023-05-25T03:17:25;23.57;;;8.13;;
9836;SDS011;4957;51.412;6.724;2023-05-25T03:19:50;29.60;;;10.70;;
9836;SDS011;4957;51.412;6.724;2023-05-25T03:22:17;28.53;;;10.43;;
9836;SDS011;4957;51.412;6.724;2023-05-25T03:24:42;32.03;;;11.00;;
9836;SDS011;4957;51.412;6.724;2023-05-25T03:27:08;19.23;;;8.40;;
9836;SDS011;4957;51.412;6.724;2023-05-25T03:29:34;29.47;;;10.13;;
9836;SDS011;4957;51.412;6.724;2023-05-25T03:31:59;25.03;;;10.50;;
9836;SDS011;4957;51.412;6.724;2023-05-25T03:34:25;29.23;;;10.17;;
9836;SDS011;4957;51.412;6.724;2023-05-25T03:36:51;22.87;;;9.43;;
9836;SDS011;4957;51.412;6.724;2023-05-25T03:39:17;20.07;;;8.70;;
9836;SDS011;4957;51.412;6.724;2023-05-25T03:41:43;14.53;;;6.60;;
9836;SDS011;4957;51.412;6.724;2023-05-25T03:44:08;24.07;;;7.60;;
9836;SDS011;4957;51.412;6.724;2023-05-25T03:46:35;20.37;;;7.53;;
9836;SDS011;4957;51.412;6.724;2023-05-25T03:49:00;18.23;;;6.30;;
9836;SDS011;4957;51.412;6.724;2023-05-25T03:51:26;17.03;;;6.30;;
9836;SDS011;4957;51.412;6.724;2023-05-25T03:53:53;15.33;;;6.37;;
9836;SDS011;4957;51.412;6.724;2023-05-25T03:56:19;10.40;;;6.10;;
9836;SDS011;4957;51.412;6.724;2023-05-25T03:58:45;10.30;;;5.20;;
9836;SDS011;4957;51.412;6.724;2023-05-25T04:01:11;16.60;;;5.63;;
9836;SDS011;4957;51.412;6.724;2023-05-25T04:03:37;15.70;;;5.63;;
9836;SDS011;4957;51.412;6.724;2023-05-25T04:06:03;16.60;;;5.90;;
9836;SDS011;4957;51.412;6.724;2023-05-25T04:08:29;13.07;;;5.53;;
9836;SDS011;4957;51.412;6.724;2023-05-25T04:10:54;14.13;;;6.00;;
9836;SDS011;4957;51.412;6.724;2023-05-25T04:13:21;12.73;;;5.33;;
9836;SDS011;4957;51.412;6.724;2023-05-25T04:15:47;16.57;;;6.00;;
9836;SDS011;4957;51.412;6.724;2023-05-25T04:18:14;14.70;;;6.63;;
9836;SDS011;4957;51.412;6.724;2023-05-25T04:20:40;17.67;;;7.03;;
9836;SDS011;4957;51.412;6.724;2023-05-25T04:23:05;18.13;;;7.33;;
9836;SDS011;4957;51.412;6.724;2023-05-25T04:25:31;15.33;;;6.87;;
9836;SDS011;4957;51.412;6.724;2023-05-25T04:27:57;17.87;;;7.23;;
9836;SDS011;4957;51.412;6.724;2023-05-25T04:30:23;14.83;;;7.13;;
9836;SDS011;4957;51.412;6.724;2023-05-25T04:32:48;17.83;;;7.13;;
9836;SDS011;4957;51.412;6.724;2023-05-25T04:35:14;15.83;;;7.33;;
9836;SDS011;4957;51.412;6.724;2023-05-25T04:37:40;17.40;;;9.53;;
9836;SDS011;4957;51.412;6.724;2023-05-25T04:40:07;21.70;;;8.77;;
9836;SDS011;4957;51.412;6.724;2023-05-25T04:42:38;26.00;;;8.60;;
9836;SDS011;4957;51.412;6.724;2023-05-25T04:45:06;23.47;;;8.37;;
9836;SDS011;4957;51.412;6.724;2023-05-25T04:47:36;22.50;;;8.67;;
9836;SDS011;4957;51.412;6.724;2023-05-25T04:50:05;21.10;;;9.30;;
9836;SDS011;4957;51.412;6.724;2023-05-25T04:52:32;20.60;;;9.13;;
9836;SDS011;4957;51.412;6.724;2023-05-25T04:54:57;20.77;;;9.27;;
9836;SDS011;4957;51.412;6.724;2023-05-25T04:57:24;21.87;;;8.83;;
9836;SDS011;4957;51.412;6.724;2023-05-25T04:59:52;16.67;;;7.43;;
9836;SDS011;4957;51.412;6.724;2023-05-25T05:02:18;14.60;;;9.67;;
9836;SDS011;4957;51.412;6.724;2023-05-25T05:04:43;20.30;;;9.27;;
9836;SDS011;4957;51.412;6.724;2023-05-25T05:07:10;16.13;;;8.20;;
9836;SDS011;4957;51.412;6.724;2023-05-25T05:09:35;16.53;;;8.33;;
9836;SDS011;4957;51.412;6.724;2023-05-25T05:12:02;15.77;;;7.53;;
9836;SDS011;4957;51.412;6.724;2023-05-25T05:14:27;19.30;;;7.77;;
9836;SDS011;4957;51.412;6.724;2023-05-25T05:16:53;14.47;;;7.40;;
9836;SDS011;4957;51.412;6.724;2023-05-25T05:19:19;16.47;;;6.67;;
9836;SDS011;4957;51.412;6.724;2023-05-25T05:21:45;13.50;;;6.07;;
9836;SDS011;4957;51.412;6.724;2023-05-25T05:24:10;12.67;;;5.83;;
9836;SDS011;4957;51.412;6.724;2023-05-25T05:26:37;17.00;;;6.23;;
9836;SDS011;4957;51.412;6.724;2023-05-25T05:29:04;16.03;;;5.10;;
9836;SDS011;4957;51.412;6.724;2023-05-25T05:31:29;15.37;;;5.27;;
9836;SDS011;4957;51.412;6.724;2023-05-25T05:33:55;17.27;;;6.07;;
9836;SDS011;4957;51.412;6.724;2023-05-25T05:36:21;15.33;;;6.43;;
9836;SDS011;4957;51.412;6.724;2023-05-25T05:38:47;13.53;;;6.43;;
9836;SDS011;4957;51.412;6.724;2023-05-25T05:41:13;13.10;;;6.27;;
9836;SDS011;4957;51.412;6.724;2023-05-25T05:43:42;18.60;;;6.17;;
9836;SDS011;4957;51.412;6.724;2023-05-25T05:46:09;21.33;;;6.20;;
9836;SDS011;4957;51.412;6.724;2023-05-25T05:48:35;22.93;;;6.63;;
9836;SDS011;4957;51.412;6.724;2023-05-25T05:51:02;25.93;;;6.70;;
9836;SDS011;4957;51.412;6.724;2023-05-25T05:53:28;20.53;;;7.30;;
9836;SDS011;4957;51.412;6.724;2023-05-25T05:55:54;18.97;;;6.43;;
9836;SDS011;4957;51.412;6.724;2023-05-25T05:58:25;21.27;;;7.83;;
9836;SDS011;4957;51.412;6.724;2023-05-25T06:00:51;15.23;;;5.60;;
9836;SDS011;4957;51.412;6.724;2023-05-25T06:03:18;14.57;;;6.00;;
9836;SDS011;4957;51.412;6.724;2023-05-25T06:05:44;16.53;;;5.90;;
9836;SDS011;4957;51.412;6.724;2023-05-25T06:08:10;19.43;;;6.43;;
9836;SDS011;4957;51.412;6.724;2023-05-25T06:10:37;17.47;;;6.77;;
9836;SDS011;4957;51.412;6.724;2023-05-25T06:13:03;19.27;;;5.23;;
9836;SDS011;4957;51.412;6.724;2023-05-25T06:15:31;18.27;;;5.73;;
9836;SDS011;4957;51.412;6.724;2023-05-25T06:17:57;15.10;;;5.30;;
9836;SDS011;4957;51.412;6.724;2023-05-25T06:20:23;11.90;;;5.47;;
9836;SDS011;4957;51.412;6.724;2023-05-25T06:22:59;14.27;;;5.20;;
9836;SDS011;4957;51.412;6.724;2023-05-25T06:25:25;12.00;;;4.83;;
9836;SDS011;4957;51.412;6.724;2023-05-25T06:27:51;10.57;;;4.63;;
9836;SDS011;4957;51.412;6.724;2023-05-25T06:30:19;13.83;;;5.40;;
9836;SDS011;4957;51.412;6.724;2023-05-25T06:32:45;18.97;;;5.90;;
9836;SDS011;4957;51.412;6.724;2023-05-25T06:35:11;11.43;;;5.30;;
9836;SDS011;4957;51.412;6.724;2023-05-25T06:37:43;15.67;;;5.40;;
9836;SDS011;4957;51.412;6.724;2023-05-25T06:40:10;11.30;;;4.87;;
9836;SDS011;4957;51.412;6.724;2023-05-25T06:42:36;13.17;;;6.03;;
9836;SDS011;4957;51.412;6.724;2023-05-25T06:45:02;12.53;;;5.17;;
9836;SDS011;4957;51.412;6.724;2023-05-25T06:47:28;12.47;;;5.00;;
9836;SDS011;4957;51.412;6.724;2023-05-25T06:49:54;17.47;;;5.50;;
9836;SDS011;4957;51.412;6.724;2023-05-25T06:52:20;13.33;;;4.43;;
9836;SDS011;4957;51.412;6.724;2023-05-25T06:54:46;12.03;;;4.87;;
9836;SDS011;4957;51.412;6.724;2023-05-25T06:57:11;11.83;;;5.20;;
9836;SDS011;4957;51.412;6.724;2023-05-25T06:59:37;11.00;;;5.03;;
9836;SDS011;4957;51.412;6.724;2023-05-25T07:02:03;11.43;;;5.23;;
9836;SDS011;4957;51.412;6.724;2023-05-25T07:04:28;14.17;;;5.00;;
9836;SDS011;4957;51.412;6.724;2023-05-25T07:06:54;10.83;;;4.53;;
9836;SDS011;4957;51.412;6.724;2023-05-25T07:09:20;14.80;;;5.20;;
9836;SDS011;4957;51.412;6.724;2023-05-25T07:11:46;14.60;;;5.03;;
9836;SDS011;4957;51.412;6.724;2023-05-25T07:14:11;16.07;;;5.40;;
9836;SDS011;4957;51.412;6.724;2023-05-25T07:16:37;10.73;;;5.90;;
9836;SDS011;4957;51.412;6.724;2023-05-25T07:19:03;12.27;;;5.17;;
9836;SDS011;4957;51.412;6.724;2023-05-25T07:21:30;14.60;;;5.33;;
9836;SDS011;4957;51.412;6.724;2023-05-25T07:23:59;13.37;;;5.67;;
9836;SDS011;4957;51.412;6.724;2023-05-25T07:26:25;14.00;;;5.80;;
9836;SDS011;4957;51.412;6.724;2023-05-25T07:28:51;13.23;;;5.67;;
9836;SDS011;4957;51.412;6.724;2023-05-25T07:31:17;14.17;;;4.90;;
9836;SDS011;4957;51.412;6.724;2023-05-25T07:33:43;12.47;;;4.80;;
9836;SDS011;4957;51.412;6.724;2023-05-25T07:36:09;14.80;;;5.17;;
9836;SDS011;4957;51.412;6.724;2023-05-25T07:38:35;8.03;;;4.50;;
9836;SDS011;4957;51.412;6.724;2023-05-25T07:41:01;10.57;;;5.03;;
9836;SDS011;4957;51.412;6.724;2023-05-25T07:43:26;10.80;;;5.03;;
9836;SDS011;4957;51.412;6.724;2023-05-25T07:45:52;13.00;;;5.13;;
9836;SDS011;4957;51.412;6.724;2023-05-25T07:48:18;14.67;;;4.63;;
9836;SDS011;4957;51.412;6.724;2023-05-25T07:50:44;8.13;;;4.10;;
9836;SDS011;4957;51.412;6.724;2023-05-25T07:53:10;17.00;;;5.43;;
9836;SDS011;4957;51.412;6.724;2023-05-25T07:55:36;13.17;;;5.30;;
9836;SDS011;4957;51.412;6.724;2023-05-25T07:58:01;9.23;;;4.73;;
9836;SDS011;4957;51.412;6.724;2023-05-25T08:00:27;13.07;;;5.20;;
9836;SDS011;4957;51.412;6.724;2023-05-25T08:02:54;11.80;;;5.10;;
9836;SDS011;4957;51.412;6.724;2023-05-25T08:05:20;8.83;;;4.67;;
9836;SDS011;4957;51.412;6.724;2023-05-25T08:07:46;9.63;;;5.10;;
9836;SDS011;4957;51.412;6.724;2023-05-25T08:10:11;9.50;;;4.70;;
9836;SDS011;4957;51.412;6.724;2023-05-25T08:12:38;14.47;;;5.17;;
9836;SDS011;4957;51.412;6.724;2023-05-25T08:15:03;11.37;;;5.23;;
9836;SDS011;4957;51.412;6.724;2023-05-25T08:17:29;11.33;;;4.80;;
9836;SDS011;4957;51.412;6.724;2023-05-25T08:19:55;11.23;;;5.30;;
9836;SDS011;4957;51.412;6.724;2023-05-25T08:22:21;9.63;;;4.80;;
9836;SDS011;4957;51.412;6.724;2023-05-25T08:24:47;18.30;;;6.00;;
9836;SDS011;4957;51.412;6.724;2023-05-25T08:27:13;10.40;;;5.17;;
9836;SDS011;4957;51.412;6.724;2023-05-25T08:29:38;11.40;;;6.47;;
9836;SDS011;4957;51.412;6.724;2023-05-25T08:32:04;9.13;;;5.77;;
9836;SDS011;4957;51.412;6.724;2023-05-25T08:34:30;9.67;;;5.70;;
9836;SDS011;4957;51.412;6.724;2023-05-25T08:36:56;12.07;;;6.77;;
9836;SDS011;4957;51.412;6.724;2023-05-25T08:39:22;11.67;;;6.67;;
9836;SDS011;4957;51.412;6.724;2023-05-25T08:41:48;9.30;;;7.00;;
9836;SDS011;4957;51.412;6.724;2023-05-25T08:44:15;13.40;;;6.40;;
9836;SDS011;4957;51.412;6.724;2023-05-25T08:46:41;9.43;;;6.60;;
9836;SDS011;4957;51.412;6.724;2023-05-25T08:49:10;12.57;;;6.57;;
9836;SDS011;4957;51.412;6.724;2023-05-25T08:51:38;11.57;;;7.53;;
9836;SDS011;4957;51.412;6.724;2023-05-25T08:54:07;13.37;;;7.10;;
9836;SDS011;4957;51.412;6.724;2023-05-25T09:02:11;12.23;;;5.57;;
9836;SDS011;4957;51.412;6.724;2023-05-25T09:04:39;9.47;;;5.37;;
9836;SDS011;4957;51.412;6.724;2023-05-25T09:07:06;8.10;;;5.43;;
9836;SDS011;4957;51.412;6.724;2023-05-25T09:09:32;10.13;;;5.37;;
9836;SDS011;4957;51.412;6.724;2023-05-25T09:12:01;8.23;;;4.80;;
9836;SDS011;4957;51.412;6.724;2023-05-25T09:14:28;12.30;;;4.63;;
9836;SDS011;4957;51.412;6.724;2023-05-25T09:16:55;8.17;;;3.60;;
9836;SDS011;4957;51.412;6.724;2023-05-25T09:19:22;8.63;;;3.07;;
9836;SDS011;4957;51.412;6.724;2023-05-25T09:21:48;10.00;;;4.50;;
9836;SDS011;4957;51.412;6.724;2023-05-25T09:24:14;7.97;;;4.90;;
9836;SDS011;4957;51.412;6.724;2023-05-25T09:26:40;15.50;;;7.63;;
9836;SDS011;4957;51.412;6.724;2023-05-25T09:29:08;9.37;;;5.40;;
9836;SDS011;4957;51.412;6.724;2023-05-25T09:31:37;7.73;;;4.07;;
9836;SDS011;4957;51.412;6.724;2023-05-25T09:34:02;6.57;;;3.53;;
9836;SDS011;4957;51.412;6.724;2023-05-25T09:36:36;6.20;;;3.37;;
9836;SDS011;4957;51.412;6.724;2023-05-25T09:39:06;14.93;;;5.27;;
9836;SDS011;4957;51.412;6.724;2023-05-25T09:41:33;10.70;;;5.30;;
9836;SDS011;4957;51.412;6.724;2023-05-25T09:43:59;6.97;;;5.63;;
9836;SDS011;4957;51.412;6.724;2023-05-25T09:46:26;8.93;;;4.97;;
9836;SDS011;4957;51.412;6.724;2023-05-25T09:48:52;7.63;;;4.30;;
9836;SDS011;4957;51.412;6.724;2023-05-25T09:51:18;13.87;;;4.63;;
9836;SDS011;4957;51.412;6.724;2023-05-25T09:53:45;8.80;;;4.40;;
9836;SDS011;4957;51.412;6.724;2023-05-25T09:56:11;7.23;;;4.80;;
9836;SDS011;4957;51.412;6.724;2023-05-25T09:58:37;9.43;;;4.57;;
9836;SDS011;4957;51.412;6.724;2023-05-25T10:01:03;10.00;;;3.50;;
9836;SDS011;4957;51.412;6.724;2023-05-25T10:03:29;11.50;;;3.13;;
9836;SDS011;4957;51.412;6.724;2023-05-25T10:05:55;9.53;;;3.60;;
9836;SDS011;4957;51.412;6.724;2023-05-25T10:08:21;6.63;;;4.47;;
9836;SDS011;4957;51.412;6.724;2023-05-25T10:10:49;6.73;;;4.00;;
9836;SDS011;4957;51.412;6.724;2023-05-25T10:13:16;4.43;;;3.40;;
9836;SDS011;4957;51.412;6.724;2023-05-25T10:15:50;6.47;;;3.27;;
9836;SDS011;4957;51.412;6.724;2023-05-25T10:18:17;6.73;;;5.00;;
9836;SDS011;4957;51.412;6.724;2023-05-25T10:20:49;6.93;;;4.10;;
9836;SDS011;4957;51.412;6.724;2023-05-25T10:23:21;6.57;;;3.63;;
9836;SDS011;4957;51.412;6.724;2023-05-25T10:25:48;5.77;;;3.97;;
9836;SDS011;4957;51.412;6.724;2023-05-25T10:28:21;10.30;;;4.83;;
9836;SDS011;4957;51.412;6.724;2023-05-25T10:30:58;12.53;;;4.97;;
9836;SDS011;4957;51.412;6.724;2023-05-25T10:33:24;7.27;;;4.07;;
9836;SDS011;4957;51.412;6.724;2023-05-25T10:35:51;9.50;;;4.07;;
9836;SDS011;4957;51.412;6.724;2023-05-25T10:38:18;19.70;;;4.20;;
9836;SDS011;4957;51.412;6.724;2023-05-25T10:40:46;8.27;;;3.13;;
9836;SDS011;4957;51.412;6.724;2023-05-25T10:43:14;7.57;;;3.23;;
9836;SDS011;4957;51.412;6.724;2023-05-25T10:45:42;8.20;;;3.70;;
9836;SDS011;4957;51.412;6.724;2023-05-25T10:48:08;15.83;;;3.70;;
9836;SDS011;4957;51.412;6.724;2023-05-25T10:50:35;10.37;;;3.70;;
9836;SDS011;4957;51.412;6.724;2023-05-25T10:53:05;8.13;;;3.80;;
9836;SDS011;4957;51.412;6.724;2023-05-25T10:55:47;6.97;;;3.57;;
9836;SDS011;4957;51.412;6.724;2023-05-25T10:58:14;18.87;;;5.50;;
9836;SDS011;4957;51.412;6.724;2023-05-25T11:00:41;8.13;;;3.90;;
9836;SDS011;4957;51.412;6.724;2023-05-25T11:03:08;9.17;;;3.33;;
9836;SDS011;4957;51.412;6.724;2023-05-25T11:05:35;8.90;;;3.60;;
9836;SDS011;4957;51.412;6.724;2023-05-25T11:08:03;11.07;;;3.77;;
9836;SDS011;4957;51.412;6.724;2023-05-25T11:18:41;5.50;;;2.87;;
9836;SDS011;4957;51.412;6.724;2023-05-25T11:21:10;6.60;;;3.40;;
9836;SDS011;4957;51.412;6.724;2023-05-25T11:23:58;7.13;;;3.43;;
9836;SDS011;4957;51.412;6.724;2023-05-25T11:26:36;10.33;;;4.10;;
9836;SDS011;4957;51.412;6.724;2023-05-25T11:29:11;6.33;;;2.97;;
9836;SDS011;4957;51.412;6.724;2023-05-25T11:31:38;10.53;;;3.27;;
9836;SDS011;4957;51.412;6.724;2023-05-25T11:34:05;11.77;;;3.40;;
9836;SDS011;4957;51.412;6.724;2023-05-25T11:36:31;10.10;;;3.63;;
9836;SDS011;4957;51.412;6.724;2023-05-25T11:39:00;6.67;;;3.00;;
9836;SDS011;4957;51.412;6.724;2023-05-25T11:41:27;16.20;;;3.57;;
9836;SDS011;4957;51.412;6.724;2023-05-25T11:43:53;12.50;;;4.00;;
9836;SDS011;4957;51.412;6.724;2023-05-25T11:46:19;10.83;;;3.93;;
9836;SDS011;4957;51.412;6.724;2023-05-25T11:48:49;5.33;;;3.30;;
9836;SDS011;4957;51.412;6.724;2023-05-25T11:51:22;11.30;;;3.33;;
9836;SDS011;4957;51.412;6.724;2023-05-25T11:53:49;8.03;;;4.17;;
9836;SDS011;4957;51.412;6.724;2023-05-25T11:56:16;9.57;;;3.40;;
9836;SDS011;4957;51.412;6.724;2023-05-25T11:58:43;8.67;;;3.30;;
9836;SDS011;4957;51.412;6.724;2023-05-25T12:03:46;8.20;;;3.77;;
9836;SDS011;4957;51.412;6.724;2023-05-25T12:06:24;8.73;;;3.43;;
9836;SDS011;4957;51.412;6.724;2023-05-25T12:08:54;8.73;;;4.23;;
9836;SDS011;4957;51.412;6.724;2023-05-25T12:11:27;6.30;;;3.17;;
9836;SDS011;4957;51.412;6.724;2023-05-25T12:13:57;11.27;;;4.20;;
9836;SDS011;4957;51.412;6.724;2023-05-25T12:16:24;7.37;;;3.47;;
9836;SDS011;4957;51.412;6.724;2023-05-25T12:18:51;12.23;;;4.87;;
9836;SDS011;4957;51.412;6.724;2023-05-25T12:21:18;13.70;;;5.50;;
9836;SDS011;4957;51.412;6.724;2023-05-25T12:23:45;12.57;;;6.00;;
9836;SDS011;4957;51.412;6.724;2023-05-25T12:26:11;13.67;;;4.50;;
9836;SDS011;4957;51.412;6.724;2023-05-25T12:28:38;11.23;;;3.20;;
9836;SDS011;4957;51.412;6.724;2023-05-25T12:31:24;7.13;;;3.17;;
9836;SDS011;4957;51.412;6.724;2023-05-25T12:34:03;8.93;;;3.50;;
9836;SDS011;4957;51.412;6.724;2023-05-25T12:39:02;9.83;;;3.43;;
9836;SDS011;4957;51.412;6.724;2023-05-25T12:41:29;5.57;;;3.17;;
9836;SDS011;4957;51.412;6.724;2023-05-25T12:43:55;9.37;;;3.40;;
9836;SDS011;4957;51.412;6.724;2023-05-25T12:46:24;10.50;;;3.27;;
9836;SDS011;4957;51.412;6.724;2023-05-25T12:48:50;10.27;;;4.10;;
9836;SDS011;4957;51.412;6.724;2023-05-25T12:51:16;7.03;;;3.77;;
9836;SDS011;4957;51.412;6.724;2023-05-25T12:53:59;6.60;;;3.30;;
9836;SDS011;4957;51.412;6.724;2023-05-25T12:56:26;8.27;;;3.60;;
9836;SDS011;4957;51.412;6.724;2023-05-25T12:58:52;7.53;;;3.87;;
9836;SDS011;4957;51.412;6.724;2023-05-25T13:01:17;7.93;;;3.57;;
9836;SDS011;4957;51.412;6.724;2023-05-25T13:03:43;9.13;;;3.97;;
9836;SDS011;4957;51.412;6.724;2023-05-25T13:06:09;6.60;;;3.40;;
9836;SDS011;4957;51.412;6.724;2023-05-25T13:08:34;12.13;;;4.20;;
9836;SDS011;4957;51.412;6.724;2023-05-25T13:11:00;8.30;;;3.80;;
9836;SDS011;4957;51.412;6.724;2023-05-25T13:13:27;10.50;;;4.30;;
9836;SDS011;4957;51.412;6.724;2023-05-25T13:15:53;5.07;;;3.50;;
9836;SDS011;4957;51.412;6.724;2023-05-25T13:18:18;11.50;;;3.93;;
9836;SDS011;4957;51.412;6.724;2023-05-25T13:20:44;11.03;;;4.87;;
9836;SDS011;4957;51.412;6.724;2023-05-25T13:23:10;6.57;;;4.87;;
9836;SDS011;4957;51.412;6.724;2023-05-25T13:25:36;12.57;;;5.47;;
9836;SDS011;4957;51.412;6.724;2023-05-25T13:28:01;6.07;;;3.40;;
9836;SDS011;4957;51.412;6.724;2023-05-25T13:30:29;5.37;;;3.60;;
9836;SDS011;4957;51.412;6.724;2023-05-25T13:32:55;4.73;;;3.30;;
9836;SDS011;4957;51.412;6.724;2023-05-25T13:35:21;7.63;;;3.33;;
9836;SDS011;4957;51.412;6.724;2023-05-25T13:38:05;10.27;;;4.13;;
9836;SDS011;4957;51.412;6.724;2023-05-25T13:40:31;6.70;;;3.93;;
9836;SDS011;4957;51.412;6.724;2023-05-25T13:42:56;7.47;;;4.27;;
9836;SDS011;4957;51.412;6.724;2023-05-25T13:45:22;7.57;;;4.13;;
9836;SDS011;4957;51.412;6.724;2023-05-25T13:47:48;6.13;;;3.47;;
9836;SDS011;4957;51.412;6.724;2023-05-25T13:50:14;7.37;;;3.40;;
9836;SDS011;4957;51.412;6.724;2023-05-25T13:52:39;5.50;;;3.40;;
9836;SDS011;4957;51.412;6.724;2023-05-25T13:55:05;5.80;;;3.47;;
9836;SDS011;4957;51.412;6.724;2023-05-25T13:57:31;4.37;;;2.83;;
9836;SDS011;4957;51.412;6.724;2023-05-25T13:59:57;9.50;;;3.27;;
9836;SDS011;4957;51.412;6.724;2023-05-25T14:02:22;6.27;;;3.17;;
9836;SDS011;4957;51.412;6.724;2023-05-25T14:04:48;5.23;;;3.57;;
9836;SDS011;4957;51.412;6.724;2023-05-25T14:07:13;5.17;;;3.17;;
9836;SDS011;4957;51.412;6.724;2023-05-25T14:09:39;6.70;;;3.37;;
9836;SDS011;4957;51.412;6.724;2023-05-25T14:12:05;9.57;;;3.57;;
9836;SDS011;4957;51.412;6.724;2023-05-25T14:14:31;8.73;;;3.63;;
9836;SDS011;4957;51.412;6.724;2023-05-25T14:16:57;11.00;;;4.07;;
9836;SDS011;4957;51.412;6.724;2023-05-25T14:19:22;13.23;;;3.50;;
9836;SDS011;4957;51.412;6.724;2023-05-25T14:21:48;10.47;;;3.63;;
9836;SDS011;4957;51.412;6.724;2023-05-25T14:24:14;4.57;;;3.00;;
9836;SDS011;4957;51.412;6.724;2023-05-25T14:26:39;7.63;;;2.77;;
9836;SDS011;4957;51.412;6.724;2023-05-25T14:29:06;6.07;;;2.40;;
9836;SDS011;4957;51.412;6.724;2023-05-25T14:31:32;7.77;;;2.77;;
9836;SDS011;4957;51.412;6.724;2023-05-25T14:33:57;4.67;;;2.40;;
9836;SDS011;4957;51.412;6.724;2023-05-25T14:36:23;6.87;;;2.93;;
9836;SDS011;4957;51.412;6.724;2023-05-25T14:38:49;11.33;;;3.50;;
9836;SDS011;4957;51.412;6.724;2023-05-25T14:41:14;8.33;;;3.93;;
9836;SDS011;4957;51.412;6.724;2023-05-25T14:43:40;9.17;;;3.90;;
9836;SDS011;4957;51.412;6.724;2023-05-25T14:46:06;7.90;;;3.43;;
9836;SDS011;4957;51.412;6.724;2023-05-25T14:48:32;6.37;;;2.83;;
9836;SDS011;4957;51.412;6.724;2023-05-25T14:50:58;5.83;;;2.80;;
9836;SDS011;4957;51.412;6.724;2023-05-25T14:53:24;5.00;;;2.50;;
9836;SDS011;4957;51.412;6.724;2023-05-25T14:55:50;5.73;;;2.27;;
9836;SDS011;4957;51.412;6.724;2023-05-25T14:58:16;6.80;;;2.43;;
9836;SDS011;4957;51.412;6.724;2023-05-25T15:00:41;7.40;;;3.20;;
9836;SDS011;4957;51.412;6.724;2023-05-25T15:03:07;6.17;;;2.57;;
9836;SDS011;4957;51.412;6.724;2023-05-25T15:05:33;10.23;;;3.67;;
9836;SDS011;4957;51.412;6.724;2023-05-25T15:07:58;7.90;;;3.43;;
9836;SDS011;4957;51.412;6.724;2023-05-25T15:10:24;8.57;;;3.17;;
9836;SDS011;4957;51.412;6.724;2023-05-25T15:12:50;5.47;;;2.60;;
9836;SDS011;4957;51.412;6.724;2023-05-25T15:15:15;5.87;;;2.60;;
9836;SDS011;4957;51.412;6.724;2023-05-25T15:17:41;11.03;;;4.60;;
9836;SDS011;4957;51.412;6.724;2023-05-25T15:20:07;7.83;;;3.30;;
9836;SDS011;4957;51.412;6.724;2023-05-25T15:22:33;8.77;;;3.20;;
9836;SDS011;4957;51.412;6.724;2023-05-25T15:24:58;8.67;;;3.00;;
9836;SDS011;4957;51.412;6.724;2023-05-25T15:27:24;9.90;;;3.60;;
9836;SDS011;4957;51.412;6.724;2023-05-25T15:29:50;6.70;;;3.17;;
9836;SDS011;4957;51.412;6.724;2023-05-25T15:32:15;10.67;;;3.40;;